Airport ID:KEDC
Update Time (UTC):17 OCT 18 10:26
Wind Speed (Knots):8
Wind Direction (Magnetic):340
Temperature (°C):10
Dew Point (°C):10
Humidity (%):100
Altimeter (inHg):30.23
Density Altitude (Feet):
Visibility (Miles):7
Clouds (Hundreds of feet):OVC005
Present Weather:NO PRECIPITATION
METAR:METAR KEDC 171025Z AUTO 35008KT 7SM OVC005 10/10 A3023 RMK AO2

The data displayed is for advisory purposes only and is not to be used for flight planning or operations.

This page is not automatically refreshed. Reload the page to see current data.